Terminal Aerodrome Forecast
Issued by NWS Cleveland, OH

Home | Current Version | Previous Version | Graphics & Text | Print | Product List | Glossary On
Versions: 1 2 3 4 5 6 7 8 9 10 11 12 13 14 15 16 17 18 19 20 21 22 23 24 25
000
FTUS41 KCLE 231700
TAFMFD
TAF
KMFD 231729Z 2318/2418 33010KT P6SM OVC015
      TEMPO 2318/2322 3SM -RA BR SCT009 OVC020
     FM232200 35010KT P6SM BKN020
     FM240000 35008KT P6SM BKN030=

USA.gov is the U.S. government's official web portal to all federal, state and local government web resources and services.